sensor_id;sensor_type;location;lat;lon;timestamp;pressure;altitude;pressure_sealevel;temperature
30765;BMP180;494;48.744;10.106;2023-09-18T00:01:58;95365.00;;;19.60
30765;BMP180;494;48.744;10.106;2023-09-18T00:04:30;95309.00;;;19.40
30765;BMP180;494;48.744;10.106;2023-09-18T00:07:00;95226.00;;;19.60
30765;BMP180;494;48.744;10.106;2023-09-18T00:09:30;95219.00;;;19.50
30765;BMP180;494;48.744;10.106;2023-09-18T00:12:00;95370.00;;;19.50
30765;BMP180;494;48.744;10.106;2023-09-18T00:14:31;95173.00;;;19.20
30765;BMP180;494;48.744;10.106;2023-09-18T00:17:03;94954.00;;;19.30
30765;BMP180;494;48.744;10.106;2023-09-18T00:19:35;95032.00;;;18.90
30765;BMP180;494;48.744;10.106;2023-09-18T00:22:04;95163.00;;;18.90
30765;BMP180;494;48.744;10.106;2023-09-18T00:24:34;95315.00;;;18.70
30765;BMP180;494;48.744;10.106;2023-09-18T00:27:05;95202.00;;;18.70
30765;BMP180;494;48.744;10.106;2023-09-18T00:29:33;95253.00;;;19.10
30765;BMP180;494;48.744;10.106;2023-09-18T00:32:04;95333.00;;;19.40
30765;BMP180;494;48.744;10.106;2023-09-18T00:34:37;95130.00;;;19.20
30765;BMP180;494;48.744;10.106;2023-09-18T00:37:07;94932.00;;;19.30
30765;BMP180;494;48.744;10.106;2023-09-18T00:39:42;95121.00;;;19.10
30765;BMP180;494;48.744;10.106;2023-09-18T00:42:18;95304.00;;;19.00
30765;BMP180;494;48.744;10.106;2023-09-18T00:44:51;95314.00;;;18.80
30765;BMP180;494;48.744;10.106;2023-09-18T00:47:20;95326.00;;;18.80
30765;BMP180;494;48.744;10.106;2023-09-18T00:49:54;95311.00;;;17.90
30765;BMP180;494;48.744;10.106;2023-09-18T00:52:27;95187.00;;;19.30
30765;BMP180;494;48.744;10.106;2023-09-18T00:54:57;95348.00;;;18.80
30765;BMP180;494;48.744;10.106;2023-09-18T00:57:28;95309.00;;;18.10
30765;BMP180;494;48.744;10.106;2023-09-18T00:59:58;95217.00;;;18.20
30765;BMP180;494;48.744;10.106;2023-09-18T01:02:28;95380.00;;;18.20
30765;BMP180;494;48.744;10.106;2023-09-18T01:05:00;95205.00;;;18.90
30765;BMP180;494;48.744;10.106;2023-09-18T01:07:30;95283.00;;;19.20
30765;BMP180;494;48.744;10.106;2023-09-18T01:10:01;95094.00;;;18.60
30765;BMP180;494;48.744;10.106;2023-09-18T01:12:40;95242.00;;;19.10
30765;BMP180;494;48.744;10.106;2023-09-18T01:15:22;95248.00;;;19.10
30765;BMP180;494;48.744;10.106;2023-09-18T01:17:53;95089.00;;;19.10
30765;BMP180;494;48.744;10.106;2023-09-18T01:20:34;95081.00;;;18.30
30765;BMP180;494;48.744;10.106;2023-09-18T01:23:06;94955.00;;;19.00
30765;BMP180;494;48.744;10.106;2023-09-18T01:25:39;94789.00;;;18.60
30765;BMP180;494;48.744;10.106;2023-09-18T01:28:13;95258.00;;;19.00
30765;BMP180;494;48.744;10.106;2023-09-18T01:30:44;95124.00;;;18.10
30765;BMP180;494;48.744;10.106;2023-09-18T01:33:16;95170.00;;;19.00
30765;BMP180;494;48.744;10.106;2023-09-18T01:35:46;95156.00;;;18.90
30765;BMP180;494;48.744;10.106;2023-09-18T01:38:22;95255.00;;;19.00
30765;BMP180;494;48.744;10.106;2023-09-18T01:40:54;95259.00;;;17.70
30765;BMP180;494;48.744;10.106;2023-09-18T01:43:24;95262.00;;;18.40
30765;BMP180;494;48.744;10.106;2023-09-18T01:45:56;95219.00;;;19.00
30765;BMP180;494;48.744;10.106;2023-09-18T01:48:28;95077.00;;;18.90
30765;BMP180;494;48.744;10.106;2023-09-18T01:51:00;95111.00;;;18.20
30765;BMP180;494;48.744;10.106;2023-09-18T01:53:35;95264.00;;;18.60
30765;BMP180;494;48.744;10.106;2023-09-18T01:56:04;95307.00;;;18.60
30765;BMP180;494;48.744;10.106;2023-09-18T01:58:34;95265.00;;;19.10
30765;BMP180;494;48.744;10.106;2023-09-18T02:01:06;95243.00;;;19.10
30765;BMP180;494;48.744;10.106;2023-09-18T02:03:39;95149.00;;;18.20
30765;BMP180;494;48.744;10.106;2023-09-18T02:06:30;95232.00;;;18.60
30765;BMP180;494;48.744;10.106;2023-09-18T02:09:18;95166.00;;;18.80
30765;BMP180;494;48.744;10.106;2023-09-18T02:11:50;95150.00;;;19.30
30765;BMP180;494;48.744;10.106;2023-09-18T02:14:22;94912.00;;;18.10
30765;BMP180;494;48.744;10.106;2023-09-18T02:16:51;95098.00;;;18.90
30765;BMP180;494;48.744;10.106;2023-09-18T02:19:27;95215.00;;;19.10
30765;BMP180;494;48.744;10.106;2023-09-18T02:21:57;95208.00;;;18.90
30765;BMP180;494;48.744;10.106;2023-09-18T02:24:29;95180.00;;;18.60
30765;BMP180;494;48.744;10.106;2023-09-18T02:27:12;95132.00;;;19.20
30765;BMP180;494;48.744;10.106;2023-09-18T02:29:45;95184.00;;;19.10
30765;BMP180;494;48.744;10.106;2023-09-18T02:32:17;94772.00;;;18.40
30765;BMP180;494;48.744;10.106;2023-09-18T02:34:48;94817.00;;;18.90
30765;BMP180;494;48.744;10.106;2023-09-18T02:37:18;95012.00;;;18.90
30765;BMP180;494;48.744;10.106;2023-09-18T02:39:54;95205.00;;;18.70
30765;BMP180;494;48.744;10.106;2023-09-18T02:42:23;95189.00;;;19.10
30765;BMP180;494;48.744;10.106;2023-09-18T02:44:52;95125.00;;;18.70
30765;BMP180;494;48.744;10.106;2023-09-18T02:47:25;94901.00;;;18.80
30765;BMP180;494;48.744;10.106;2023-09-18T02:49:57;95188.00;;;18.70
30765;BMP180;494;48.744;10.106;2023-09-18T02:52:27;95205.00;;;18.50
30765;BMP180;494;48.744;10.106;2023-09-18T02:54:58;95131.00;;;18.60
30765;BMP180;494;48.744;10.106;2023-09-18T02:57:27;95186.00;;;19.10
30765;BMP180;494;48.744;10.106;2023-09-18T02:59:57;95124.00;;;18.90
30765;BMP180;494;48.744;10.106;2023-09-18T03:02:27;95213.00;;;18.60
30765;BMP180;494;48.744;10.106;2023-09-18T03:04:58;95203.00;;;18.30
30765;BMP180;494;48.744;10.106;2023-09-18T03:07:33;95196.00;;;18.70
30765;BMP180;494;48.744;10.106;2023-09-18T03:10:05;95193.00;;;19.00
30765;BMP180;494;48.744;10.106;2023-09-18T03:12:37;95219.00;;;19.10
30765;BMP180;494;48.744;10.106;2023-09-18T03:15:07;95127.00;;;18.90
30765;BMP180;494;48.744;10.106;2023-09-18T03:17:43;94849.00;;;17.90
30765;BMP180;494;48.744;10.106;2023-09-18T03:20:14;95049.00;;;18.80
30765;BMP180;494;48.744;10.106;2023-09-18T03:22:43;95057.00;;;18.20
30765;BMP180;494;48.744;10.106;2023-09-18T03:25:17;95058.00;;;18.90
30765;BMP180;494;48.744;10.106;2023-09-18T03:27:52;95196.00;;;18.80
30765;BMP180;494;48.744;10.106;2023-09-18T03:30:22;95100.00;;;18.60
30765;BMP180;494;48.744;10.106;2023-09-18T03:32:53;95161.00;;;17.90
30765;BMP180;494;48.744;10.106;2023-09-18T03:35:22;94868.00;;;18.90
30765;BMP180;494;48.744;10.106;2023-09-18T03:37:53;95144.00;;;18.90
30765;BMP180;494;48.744;10.106;2023-09-18T03:40:25;95155.00;;;19.00
30765;BMP180;494;48.744;10.106;2023-09-18T03:42:54;95097.00;;;19.10
30765;BMP180;494;48.744;10.106;2023-09-18T03:45:23;95106.00;;;19.10
30765;BMP180;494;48.744;10.106;2023-09-18T03:47:58;95154.00;;;18.70
30765;BMP180;494;48.744;10.106;2023-09-18T03:50:28;94840.00;;;18.90
30765;BMP180;494;48.744;10.106;2023-09-18T03:52:59;95047.00;;;19.20
30765;BMP180;494;48.744;10.106;2023-09-18T03:55:33;95193.00;;;19.30
30765;BMP180;494;48.744;10.106;2023-09-18T03:58:03;95130.00;;;19.20
30765;BMP180;494;48.744;10.106;2023-09-18T04:00:37;94694.00;;;19.20
30765;BMP180;494;48.744;10.106;2023-09-18T04:03:11;94938.00;;;18.40
30765;BMP180;494;48.744;10.106;2023-09-18T04:05:41;95082.00;;;18.20
30765;BMP180;494;48.744;10.106;2023-09-18T04:08:11;95159.00;;;19.10
30765;BMP180;494;48.744;10.106;2023-09-18T04:10:44;95038.00;;;19.20
30765;BMP180;494;48.744;10.106;2023-09-18T04:13:14;94811.00;;;18.40
30765;BMP180;494;48.744;10.106;2023-09-18T04:15:44;95142.00;;;18.70
30765;BMP180;494;48.744;10.106;2023-09-18T04:18:14;94931.00;;;19.20
30765;BMP180;494;48.744;10.106;2023-09-18T04:20:44;95027.00;;;18.70
30765;BMP180;494;48.744;10.106;2023-09-18T04:23:22;95007.00;;;19.20
30765;BMP180;494;48.744;10.106;2023-09-18T04:25:54;95148.00;;;18.50
30765;BMP180;494;48.744;10.106;2023-09-18T04:28:26;95095.00;;;18.80
30765;BMP180;494;48.744;10.106;2023-09-18T04:30:56;95180.00;;;19.10
30765;BMP180;494;48.744;10.106;2023-09-18T04:33:27;95176.00;;;19.00
30765;BMP180;494;48.744;10.106;2023-09-18T04:35:57;94882.00;;;19.30
30765;BMP180;494;48.744;10.106;2023-09-18T04:38:28;94810.00;;;19.20
30765;BMP180;494;48.744;10.106;2023-09-18T04:41:07;95137.00;;;18.60
30765;BMP180;494;48.744;10.106;2023-09-18T04:43:38;95213.00;;;19.20
30765;BMP180;494;48.744;10.106;2023-09-18T04:46:07;95262.00;;;19.20
30765;BMP180;494;48.744;10.106;2023-09-18T04:48:37;95110.00;;;18.80
30765;BMP180;494;48.744;10.106;2023-09-18T04:51:07;95235.00;;;19.20
30765;BMP180;494;48.744;10.106;2023-09-18T04:53:37;95211.00;;;19.30
30765;BMP180;494;48.744;10.106;2023-09-18T04:56:08;95274.00;;;18.90
30765;BMP180;494;48.744;10.106;2023-09-18T04:58:38;95086.00;;;19.20
30765;BMP180;494;48.744;10.106;2023-09-18T05:01:18;95067.00;;;18.40
30765;BMP180;494;48.744;10.106;2023-09-18T05:03:48;95123.00;;;19.30
30765;BMP180;494;48.744;10.106;2023-09-18T05:06:19;94905.00;;;18.10
30765;BMP180;494;48.744;10.106;2023-09-18T05:08:49;95165.00;;;19.00
30765;BMP180;494;48.744;10.106;2023-09-18T05:12:05;95160.00;;;19.10
30765;BMP180;494;48.744;10.106;2023-09-18T05:14:40;95099.00;;;19.10
30765;BMP180;494;48.744;10.106;2023-09-18T05:17:13;95151.00;;;18.90
30765;BMP180;494;48.744;10.106;2023-09-18T05:19:44;95248.00;;;18.70
30765;BMP180;494;48.744;10.106;2023-09-18T05:22:14;95158.00;;;18.70
30765;BMP180;494;48.744;10.106;2023-09-18T05:24:43;95280.00;;;18.80
30765;BMP180;494;48.744;10.106;2023-09-18T05:27:16;95104.00;;;19.50
30765;BMP180;494;48.744;10.106;2023-09-18T05:29:45;95166.00;;;19.30
30765;BMP180;494;48.744;10.106;2023-09-18T05:32:15;95077.00;;;19.20
30765;BMP180;494;48.744;10.106;2023-09-18T05:34:45;95047.00;;;19.40
30765;BMP180;494;48.744;10.106;2023-09-18T05:37:15;95141.00;;;19.10
30765;BMP180;494;48.744;10.106;2023-09-18T05:39:44;95016.00;;;18.80
30765;BMP180;494;48.744;10.106;2023-09-18T05:42:15;95008.00;;;19.50
30765;BMP180;494;48.744;10.106;2023-09-18T05:44:44;95159.00;;;19.40
30765;BMP180;494;48.744;10.106;2023-09-18T05:47:13;94925.00;;;19.00
30765;BMP180;494;48.744;10.106;2023-09-18T05:49:42;95017.00;;;19.20
30765;BMP180;494;48.744;10.106;2023-09-18T05:52:11;95172.00;;;18.50
30765;BMP180;494;48.744;10.106;2023-09-18T05:54:40;95154.00;;;19.60
30765;BMP180;494;48.744;10.106;2023-09-18T05:57:08;95152.00;;;19.80
30765;BMP180;494;48.744;10.106;2023-09-18T05:59:38;95185.00;;;19.70
30765;BMP180;494;48.744;10.106;2023-09-18T06:02:11;95119.00;;;19.80
30765;BMP180;494;48.744;10.106;2023-09-18T06:04:43;94996.00;;;19.80
30765;BMP180;494;48.744;10.106;2023-09-18T06:07:12;95159.00;;;19.80
30765;BMP180;494;48.744;10.106;2023-09-18T06:09:40;95182.00;;;19.80
30765;BMP180;494;48.744;10.106;2023-09-18T06:12:10;95118.00;;;19.80
30765;BMP180;494;48.744;10.106;2023-09-18T06:14:41;95133.00;;;20.00
30765;BMP180;494;48.744;10.106;2023-09-18T06:17:09;95077.00;;;20.00
30765;BMP180;494;48.744;10.106;2023-09-18T06:19:42;95191.00;;;20.00
30765;BMP180;494;48.744;10.106;2023-09-18T06:22:13;95179.00;;;19.90
30765;BMP180;494;48.744;10.106;2023-09-18T06:24:42;95187.00;;;19.90
30765;BMP180;494;48.744;10.106;2023-09-18T06:27:11;95123.00;;;19.80
30765;BMP180;494;48.744;10.106;2023-09-18T06:29:41;95185.00;;;20.10
30765;BMP180;494;48.744;10.106;2023-09-18T06:32:11;95179.00;;;20.30
30765;BMP180;494;48.744;10.106;2023-09-18T06:34:41;95135.00;;;18.90
30765;BMP180;494;48.744;10.106;2023-09-18T06:37:11;95147.00;;;20.70
30765;BMP180;494;48.744;10.106;2023-09-18T06:39:40;95180.00;;;20.90
30765;BMP180;494;48.744;10.106;2023-09-18T06:42:09;95079.00;;;20.50
30765;BMP180;494;48.744;10.106;2023-09-18T06:44:38;95167.00;;;21.00
30765;BMP180;494;48.744;10.106;2023-09-18T06:47:09;95069.00;;;20.10
30765;BMP180;494;48.744;10.106;2023-09-18T06:49:37;94986.00;;;21.20
30765;BMP180;494;48.744;10.106;2023-09-18T06:52:09;95201.00;;;21.00
30765;BMP180;494;48.744;10.106;2023-09-18T06:54:38;95237.00;;;21.50
30765;BMP180;494;48.744;10.106;2023-09-18T06:57:08;95009.00;;;21.50
30765;BMP180;494;48.744;10.106;2023-09-18T06:59:37;95077.00;;;21.60
30765;BMP180;494;48.744;10.106;2023-09-18T07:02:07;95189.00;;;21.70
30765;BMP180;494;48.744;10.106;2023-09-18T07:04:36;95116.00;;;21.60
30765;BMP180;494;48.744;10.106;2023-09-18T07:07:13;95116.00;;;22.20
30765;BMP180;494;48.744;10.106;2023-09-18T07:09:42;95173.00;;;22.40
30765;BMP180;494;48.744;10.106;2023-09-18T07:12:14;95063.00;;;22.60
30765;BMP180;494;48.744;10.106;2023-09-18T07:14:51;95213.00;;;22.70
30765;BMP180;494;48.744;10.106;2023-09-18T07:17:22;95136.00;;;22.50
30765;BMP180;494;48.744;10.106;2023-09-18T07:19:51;95155.00;;;22.70
30765;BMP180;494;48.744;10.106;2023-09-18T07:22:20;95125.00;;;22.30
30765;BMP180;494;48.744;10.106;2023-09-18T07:24:49;95068.00;;;22.20
30765;BMP180;494;48.744;10.106;2023-09-18T07:27:18;95173.00;;;22.40
30765;BMP180;494;48.744;10.106;2023-09-18T07:29:46;95014.00;;;22.40
30765;BMP180;494;48.744;10.106;2023-09-18T07:32:16;95096.00;;;22.30
30765;BMP180;494;48.744;10.106;2023-09-18T07:35:07;95127.00;;;22.50
30765;BMP180;494;48.744;10.106;2023-09-18T07:37:37;95194.00;;;22.50
30765;BMP180;494;48.744;10.106;2023-09-18T07:40:07;94723.00;;;22.90
30765;BMP180;494;48.744;10.106;2023-09-18T07:42:36;95188.00;;;23.10
30765;BMP180;494;48.744;10.106;2023-09-18T07:45:06;95179.00;;;23.30
30765;BMP180;494;48.744;10.106;2023-09-18T07:47:41;95208.00;;;23.30
30765;BMP180;494;48.744;10.106;2023-09-18T07:50:13;95134.00;;;23.50
30765;BMP180;494;48.744;10.106;2023-09-18T07:52:45;95240.00;;;23.70
30765;BMP180;494;48.744;10.106;2023-09-18T07:55:14;95150.00;;;23.80
30765;BMP180;494;48.744;10.106;2023-09-18T07:57:43;95105.00;;;23.30
30765;BMP180;494;48.744;10.106;2023-09-18T08:00:13;95162.00;;;24.00
30765;BMP180;494;48.744;10.106;2023-09-18T08:02:44;95151.00;;;24.20
30765;BMP180;494;48.744;10.106;2023-09-18T08:05:18;95131.00;;;24.10
30765;BMP180;494;48.744;10.106;2023-09-18T08:07:47;95181.00;;;24.20
30765;BMP180;494;48.744;10.106;2023-09-18T08:10:16;95230.00;;;24.30
30765;BMP180;494;48.744;10.106;2023-09-18T08:12:46;95227.00;;;24.40
30765;BMP180;494;48.744;10.106;2023-09-18T08:15:16;95226.00;;;24.30
30765;BMP180;494;48.744;10.106;2023-09-18T08:17:45;95260.00;;;24.00
30765;BMP180;494;48.744;10.106;2023-09-18T08:20:47;95101.00;;;24.40
30765;BMP180;494;48.744;10.106;2023-09-18T08:23:16;95208.00;;;24.50
30765;BMP180;494;48.744;10.106;2023-09-18T08:25:45;95215.00;;;24.30
30765;BMP180;494;48.744;10.106;2023-09-18T08:28:20;95142.00;;;24.30
30765;BMP180;494;48.744;10.106;2023-09-18T08:30:49;95147.00;;;24.60
30765;BMP180;494;48.744;10.106;2023-09-18T08:33:20;95159.00;;;25.00
30765;BMP180;494;48.744;10.106;2023-09-18T08:35:51;94984.00;;;25.20
30765;BMP180;494;48.744;10.106;2023-09-18T08:38:20;95253.00;;;25.50
30765;BMP180;494;48.744;10.106;2023-09-18T08:40:49;95268.00;;;25.40
30765;BMP180;494;48.744;10.106;2023-09-18T08:43:21;95066.00;;;25.20
30765;BMP180;494;48.744;10.106;2023-09-18T08:45:54;95274.00;;;25.10
30765;BMP180;494;48.744;10.106;2023-09-18T08:48:30;95177.00;;;24.90
30765;BMP180;494;48.744;10.106;2023-09-18T08:51:05;95272.00;;;24.70
30765;BMP180;494;48.744;10.106;2023-09-18T08:53:36;95208.00;;;25.10
30765;BMP180;494;48.744;10.106;2023-09-18T08:56:07;95287.00;;;25.10
30765;BMP180;494;48.744;10.106;2023-09-18T08:58:39;95288.00;;;25.50
30765;BMP180;494;48.744;10.106;2023-09-18T09:01:11;95270.00;;;25.60
30765;BMP180;494;48.744;10.106;2023-09-18T09:03:41;95218.00;;;25.40
30765;BMP180;494;48.744;10.106;2023-09-18T09:06:14;95233.00;;;25.70
30765;BMP180;494;48.744;10.106;2023-09-18T09:08:44;95239.00;;;26.00
30765;BMP180;494;48.744;10.106;2023-09-18T09:11:13;95202.00;;;25.80
30765;BMP180;494;48.744;10.106;2023-09-18T09:13:43;95183.00;;;25.70
30765;BMP180;494;48.744;10.106;2023-09-18T09:16:14;95183.00;;;25.60
30765;BMP180;494;48.744;10.106;2023-09-18T09:18:50;95277.00;;;25.90
30765;BMP180;494;48.744;10.106;2023-09-18T09:21:21;95243.00;;;23.80
30765;BMP180;494;48.744;10.106;2023-09-18T09:23:53;95301.00;;;25.40
30765;BMP180;494;48.744;10.106;2023-09-18T09:26:26;95303.00;;;25.00
30765;BMP180;494;48.744;10.106;2023-09-18T09:28:56;95243.00;;;24.90
30765;BMP180;494;48.744;10.106;2023-09-18T09:31:27;95310.00;;;23.90
30765;BMP180;494;48.744;10.106;2023-09-18T09:33:57;95194.00;;;25.00
30765;BMP180;494;48.744;10.106;2023-09-18T09:36:31;95303.00;;;24.40
30765;BMP180;494;48.744;10.106;2023-09-18T09:39:00;95321.00;;;24.10
30765;BMP180;494;48.744;10.106;2023-09-18T09:41:33;95305.00;;;24.90
30765;BMP180;494;48.744;10.106;2023-09-18T09:44:10;95188.00;;;24.20
30765;BMP180;494;48.744;10.106;2023-09-18T09:46:47;95251.00;;;24.80
30765;BMP180;494;48.744;10.106;2023-09-18T09:49:17;95202.00;;;24.70
30765;BMP180;494;48.744;10.106;2023-09-18T09:51:52;95302.00;;;24.00
30765;BMP180;494;48.744;10.106;2023-09-18T09:54:33;95294.00;;;24.10
30765;BMP180;494;48.744;10.106;2023-09-18T09:57:04;95186.00;;;24.20
30765;BMP180;494;48.744;10.106;2023-09-18T09:59:33;94791.00;;;24.10
30765;BMP180;494;48.744;10.106;2023-09-18T10:02:08;95356.00;;;24.10
30765;BMP180;494;48.744;10.106;2023-09-18T10:04:40;95311.00;;;24.30
30765;BMP180;494;48.744;10.106;2023-09-18T10:07:12;95342.00;;;24.10
30765;BMP180;494;48.744;10.106;2023-09-18T10:09:45;95268.00;;;23.70
30765;BMP180;494;48.744;10.106;2023-09-18T10:12:19;95282.00;;;23.50
30765;BMP180;494;48.744;10.106;2023-09-18T10:14:51;95252.00;;;23.80
30765;BMP180;494;48.744;10.106;2023-09-18T10:17:31;95326.00;;;23.10
30765;BMP180;494;48.744;10.106;2023-09-18T10:20:08;95282.00;;;23.80
30765;BMP180;494;48.744;10.106;2023-09-18T10:22:49;95259.00;;;23.20
30765;BMP180;494;48.744;10.106;2023-09-18T10:25:24;95338.00;;;23.60
30765;BMP180;494;48.744;10.106;2023-09-18T10:27:58;95259.00;;;23.30
30765;BMP180;494;48.744;10.106;2023-09-18T10:30:32;95350.00;;;23.30
30765;BMP180;494;48.744;10.106;2023-09-18T10:33:02;95162.00;;;23.40
30765;BMP180;494;48.744;10.106;2023-09-18T10:35:35;95431.00;;;23.20
30765;BMP180;494;48.744;10.106;2023-09-18T10:38:07;95408.00;;;22.90
30765;BMP180;494;48.744;10.106;2023-09-18T10:40:37;95385.00;;;22.50
30765;BMP180;494;48.744;10.106;2023-09-18T10:43:09;95323.00;;;22.60
30765;BMP180;494;48.744;10.106;2023-09-18T10:45:41;95386.00;;;22.60
30765;BMP180;494;48.744;10.106;2023-09-18T10:48:12;95382.00;;;22.30
30765;BMP180;494;48.744;10.106;2023-09-18T10:50:43;95387.00;;;22.00
30765;BMP180;494;48.744;10.106;2023-09-18T10:53:14;95355.00;;;21.90
30765;BMP180;494;48.744;10.106;2023-09-18T10:55:45;95355.00;;;21.80
30765;BMP180;494;48.744;10.106;2023-09-18T10:58:23;95411.00;;;21.30
30765;BMP180;494;48.744;10.106;2023-09-18T11:00:54;95405.00;;;20.90
30765;BMP180;494;48.744;10.106;2023-09-18T11:03:25;95314.00;;;21.00
30765;BMP180;494;48.744;10.106;2023-09-18T11:06:06;95388.00;;;20.70
30765;BMP180;494;48.744;10.106;2023-09-18T11:08:49;95294.00;;;20.70
30765;BMP180;494;48.744;10.106;2023-09-18T11:11:22;95291.00;;;20.80
30765;BMP180;494;48.744;10.106;2023-09-18T11:13:53;95353.00;;;20.70
30765;BMP180;494;48.744;10.106;2023-09-18T11:16:35;95407.00;;;20.50
30765;BMP180;494;48.744;10.106;2023-09-18T11:19:12;95443.00;;;20.00
30765;BMP180;494;48.744;10.106;2023-09-18T11:21:43;95459.00;;;20.10
30765;BMP180;494;48.744;10.106;2023-09-18T11:24:21;95427.00;;;20.30
30765;BMP180;494;48.744;10.106;2023-09-18T11:26:51;95419.00;;;19.70
30765;BMP180;494;48.744;10.106;2023-09-18T11:29:23;95480.00;;;20.20
30765;BMP180;494;48.744;10.106;2023-09-18T11:31:56;95357.00;;;20.50
30765;BMP180;494;48.744;10.106;2023-09-18T11:34:35;95430.00;;;20.40
30765;BMP180;494;48.744;10.106;2023-09-18T11:37:20;95444.00;;;20.40
30765;BMP180;494;48.744;10.106;2023-09-18T11:40:29;95370.00;;;20.30
30765;BMP180;494;48.744;10.106;2023-09-18T11:43:26;95425.00;;;20.60
30765;BMP180;494;48.744;10.106;2023-09-18T11:46:01;95471.00;;;20.40
30765;BMP180;494;48.744;10.106;2023-09-18T11:48:41;95447.00;;;20.10
30765;BMP180;494;48.744;10.106;2023-09-18T11:51:22;95430.00;;;19.60
30765;BMP180;494;48.744;10.106;2023-09-18T11:53:56;95401.00;;;20.20
30765;BMP180;494;48.744;10.106;2023-09-18T11:56:32;95284.00;;;20.10
30765;BMP180;494;48.744;10.106;2023-09-18T11:59:36;95441.00;;;19.80
30765;BMP180;494;48.744;10.106;2023-09-18T12:02:27;95497.00;;;19.60
30765;BMP180;494;48.744;10.106;2023-09-18T12:05:11;94873.00;;;19.90
30765;BMP180;494;48.744;10.106;2023-09-18T12:08:04;95419.00;;;19.90
30765;BMP180;494;48.744;10.106;2023-09-18T12:10:39;95448.00;;;19.90
30765;BMP180;494;48.744;10.106;2023-09-18T12:13:22;95422.00;;;18.80
30765;BMP180;494;48.744;10.106;2023-09-18T12:16:00;95042.00;;;19.90
30765;BMP180;494;48.744;10.106;2023-09-18T12:18:48;95407.00;;;19.70
30765;BMP180;494;48.744;10.106;2023-09-18T12:21:31;95170.00;;;18.00
30765;BMP180;494;48.744;10.106;2023-09-18T12:24:05;95424.00;;;19.80
30765;BMP180;494;48.744;10.106;2023-09-18T12:26:38;95169.00;;;19.80
30765;BMP180;494;48.744;10.106;2023-09-18T12:29:12;95418.00;;;19.60
30765;BMP180;494;48.744;10.106;2023-09-18T12:31:44;95406.00;;;19.50
30765;BMP180;494;48.744;10.106;2023-09-18T12:34:28;95383.00;;;19.60
30765;BMP180;494;48.744;10.106;2023-09-18T12:37:15;95324.00;;;19.40
30765;BMP180;494;48.744;10.106;2023-09-18T12:40:01;95399.00;;;18.70
30765;BMP180;494;48.744;10.106;2023-09-18T12:42:40;95382.00;;;18.60
30765;BMP180;494;48.744;10.106;2023-09-18T12:45:19;95394.00;;;18.70
30765;BMP180;494;48.744;10.106;2023-09-18T12:47:55;95371.00;;;19.30
30765;BMP180;494;48.744;10.106;2023-09-18T12:50:30;95317.00;;;19.30
30765;BMP180;494;48.744;10.106;2023-09-18T12:53:10;95406.00;;;19.30
30765;BMP180;494;48.744;10.106;2023-09-18T12:56:05;95293.00;;;19.10
30765;BMP180;494;48.744;10.106;2023-09-18T12:58:40;95250.00;;;19.20
30765;BMP180;494;48.744;10.106;2023-09-18T13:01:57;95389.00;;;19.60
30765;BMP180;494;48.744;10.106;2023-09-18T13:04:35;95283.00;;;19.60
30765;BMP180;494;48.744;10.106;2023-09-18T13:07:13;95317.00;;;19.60
30765;BMP180;494;48.744;10.106;2023-09-18T13:09:59;95368.00;;;19.40
30765;BMP180;494;48.744;10.106;2023-09-18T13:12:43;95280.00;;;19.30
30765;BMP180;494;48.744;10.106;2023-09-18T13:15:27;95356.00;;;19.10
30765;BMP180;494;48.744;10.106;2023-09-18T13:18:52;95380.00;;;19.70
30765;BMP180;494;48.744;10.106;2023-09-18T13:21:35;95297.00;;;19.90
30765;BMP180;494;48.744;10.106;2023-09-18T13:24:25;95345.00;;;19.90
30765;BMP180;494;48.744;10.106;2023-09-18T13:27:12;95353.00;;;20.10
30765;BMP180;494;48.744;10.106;2023-09-18T13:29:43;95358.00;;;20.10
30765;BMP180;494;48.744;10.106;2023-09-18T13:32:16;95288.00;;;19.80
30765;BMP180;494;48.744;10.106;2023-09-18T13:34:48;95344.00;;;20.10
30765;BMP180;494;48.744;10.106;2023-09-18T13:37:18;95373.00;;;19.50
30765;BMP180;494;48.744;10.106;2023-09-18T13:39:50;95327.00;;;20.00
30765;BMP180;494;48.744;10.106;2023-09-18T13:42:22;95350.00;;;20.40
30765;BMP180;494;48.744;10.106;2023-09-18T13:44:52;95350.00;;;20.30
30765;BMP180;494;48.744;10.106;2023-09-18T13:47:23;95251.00;;;19.60
30765;BMP180;494;48.744;10.106;2023-09-18T13:52:51;95414.00;;;18.60
30765;BMP180;494;48.744;10.106;2023-09-18T13:55:36;94960.00;;;19.40
30765;BMP180;494;48.744;10.106;2023-09-18T13:58:07;95304.00;;;19.70
30765;BMP180;494;48.744;10.106;2023-09-18T14:00:37;95398.00;;;20.10
30765;BMP180;494;48.744;10.106;2023-09-18T14:03:08;95291.00;;;20.30
30765;BMP180;494;48.744;10.106;2023-09-18T14:05:40;95166.00;;;20.50
30765;BMP180;494;48.744;10.106;2023-09-18T14:08:13;95347.00;;;19.80
30765;BMP180;494;48.744;10.106;2023-09-18T14:10:46;95335.00;;;20.10
30765;BMP180;494;48.744;10.106;2023-09-18T14:13:15;95260.00;;;20.70
30765;BMP180;494;48.744;10.106;2023-09-18T14:15:46;95369.00;;;20.80
30765;BMP180;494;48.744;10.106;2023-09-18T14:18:19;95328.00;;;20.90
30765;BMP180;494;48.744;10.106;2023-09-18T14:20:51;95359.00;;;20.40
30765;BMP180;494;48.744;10.106;2023-09-18T14:23:52;95237.00;;;21.00
30765;BMP180;494;48.744;10.106;2023-09-18T14:26:24;95314.00;;;20.50
30765;BMP180;494;48.744;10.106;2023-09-18T14:28:54;95068.00;;;20.60
30765;BMP180;494;48.744;10.106;2023-09-18T14:31:25;95301.00;;;21.50
30765;BMP180;494;48.744;10.106;2023-09-18T14:34:09;95314.00;;;20.60
30765;BMP180;494;48.744;10.106;2023-09-18T14:36:46;95320.00;;;21.80
30765;BMP180;494;48.744;10.106;2023-09-18T14:39:19;95261.00;;;21.90
30765;BMP180;494;48.744;10.106;2023-09-18T14:41:50;95293.00;;;22.00
30765;BMP180;494;48.744;10.106;2023-09-18T14:44:44;95212.00;;;22.20
30765;BMP180;494;48.744;10.106;2023-09-18T14:47:50;95188.00;;;22.10
30765;BMP180;494;48.744;10.106;2023-09-18T14:51:08;95317.00;;;22.30
30765;BMP180;494;48.744;10.106;2023-09-18T14:54:09;95308.00;;;22.40
30765;BMP180;494;48.744;10.106;2023-09-18T14:57:27;95305.00;;;22.50
30765;BMP180;494;48.744;10.106;2023-09-18T14:59:58;95333.00;;;22.30
30765;BMP180;494;48.744;10.106;2023-09-18T15:02:45;95295.00;;;22.60
30765;BMP180;494;48.744;10.106;2023-09-18T15:05:28;95210.00;;;22.20